Accueil
METAR-TAF:

METAR-TAF

Aéroports :

Aéroport de Saint-Brieuc Armor

Saint-Brieuc, France

latitude: 48-32N, longitude: 002-51W, altitude: 138 m

Observation

Le bulletin a été fait il y a 10 minutes, à 09:30 UTC
Vent 4 kt de est/sud-est, variant entre est et sud/sud-est
Température 5°C
Humidité 81%
Pression 1040 hPa
Visibilité 10 km ou plus
Nuages épars à une hauteur de 2100 ft

METAR: LFRT 210930Z AUTO 12004KT 090V150 9999 SCT021 05/02 Q1040

Heure: 10:40 (09:40 UTC)


TAF: absent

Observations et prévisions météorologiques de plus de 4000 aéroports (messages METAR et TAF).

Les stations disponibles sont représentées par des disques jaunes et rouges sur la carte.

Passer la souris dessus pour voir le nom de la station.

Cliquer dessus pour voir les observations et prévisions météorologiques.

Pour changer de carte: cliquez sur les boutons verts avec une croix noire pour zoomer, sur le bouton vert avec un tiret pour effectuer un zoom arrière, ou sur les flèches vertes pour les cartes adjacentes.


METAR-TAF: